sensor_id;sensor_type;location;lat;lon;timestamp;P1;durP1;ratioP1;P2;durP2;ratioP2
66342;SDS011;53144;51.524;5.080;2023-04-16T00:00:37;7.80;;;2.40;;
66342;SDS011;53144;51.524;5.080;2023-04-16T00:03:03;12.80;;;4.13;;
66342;SDS011;53144;51.524;5.080;2023-04-16T00:05:28;9.55;;;4.05;;
66342;SDS011;53144;51.524;5.080;2023-04-16T00:07:54;13.77;;;3.75;;
66342;SDS011;53144;51.524;5.080;2023-04-16T00:10:19;12.18;;;4.20;;
66342;SDS011;53144;51.524;5.080;2023-04-16T00:12:45;12.43;;;3.63;;
66342;SDS011;53144;51.524;5.080;2023-04-16T00:15:10;10.48;;;3.50;;
66342;SDS011;53144;51.524;5.080;2023-04-16T00:17:35;12.48;;;3.72;;
66342;SDS011;53144;51.524;5.080;2023-04-16T00:20:01;9.25;;;3.65;;
66342;SDS011;53144;51.524;5.080;2023-04-16T00:22:26;10.27;;;3.65;;
66342;SDS011;53144;51.524;5.080;2023-04-16T00:24:52;12.40;;;5.13;;
66342;SDS011;53144;51.524;5.080;2023-04-16T00:27:17;10.03;;;4.03;;
66342;SDS011;53144;51.524;5.080;2023-04-16T00:29:43;15.65;;;5.43;;
66342;SDS011;53144;51.524;5.080;2023-04-16T00:32:09;16.38;;;7.38;;
66342;SDS011;53144;51.524;5.080;2023-04-16T00:34:34;13.50;;;5.10;;
66342;SDS011;53144;51.524;5.080;2023-04-16T00:36:59;14.55;;;6.75;;
66342;SDS011;53144;51.524;5.080;2023-04-16T00:39:25;9.43;;;3.85;;
66342;SDS011;53144;51.524;5.080;2023-04-16T00:41:50;7.97;;;4.63;;
66342;SDS011;53144;51.524;5.080;2023-04-16T00:44:16;10.05;;;4.07;;
66342;SDS011;53144;51.524;5.080;2023-04-16T00:46:41;15.98;;;6.95;;
66342;SDS011;53144;51.524;5.080;2023-04-16T00:49:07;15.60;;;5.47;;
66342;SDS011;53144;51.524;5.080;2023-04-16T00:51:34;7.47;;;5.03;;
66342;SDS011;53144;51.524;5.080;2023-04-16T00:53:59;9.90;;;4.28;;
66342;SDS011;53144;51.524;5.080;2023-04-16T00:56:25;13.52;;;7.53;;
66342;SDS011;53144;51.524;5.080;2023-04-16T00:58:52;12.00;;;5.38;;
66342;SDS011;53144;51.524;5.080;2023-04-16T01:01:18;13.45;;;6.32;;
66342;SDS011;53144;51.524;5.080;2023-04-16T01:03:46;8.47;;;4.43;;
66342;SDS011;53144;51.524;5.080;2023-04-16T01:06:12;11.57;;;4.88;;
66342;SDS011;53144;51.524;5.080;2023-04-16T01:08:38;8.27;;;5.25;;
66342;SDS011;53144;51.524;5.080;2023-04-16T01:11:04;15.32;;;5.15;;
66342;SDS011;53144;51.524;5.080;2023-04-16T01:13:30;9.73;;;4.22;;
66342;SDS011;53144;51.524;5.080;2023-04-16T01:15:57;10.95;;;5.28;;
66342;SDS011;53144;51.524;5.080;2023-04-16T01:18:24;11.13;;;5.03;;
66342;SDS011;53144;51.524;5.080;2023-04-16T01:20:50;9.63;;;4.90;;
66342;SDS011;53144;51.524;5.080;2023-04-16T01:23:15;7.95;;;4.35;;
66342;SDS011;53144;51.524;5.080;2023-04-16T01:25:44;6.32;;;4.85;;
66342;SDS011;53144;51.524;5.080;2023-04-16T01:28:10;7.80;;;4.40;;
66342;SDS011;53144;51.524;5.080;2023-04-16T01:30:36;11.07;;;4.47;;
66342;SDS011;53144;51.524;5.080;2023-04-16T01:33:01;10.23;;;4.47;;
66342;SDS011;53144;51.524;5.080;2023-04-16T01:35:27;5.95;;;3.78;;
66342;SDS011;53144;51.524;5.080;2023-04-16T01:37:52;10.05;;;4.03;;
66342;SDS011;53144;51.524;5.080;2023-04-16T01:40:18;10.07;;;4.10;;
66342;SDS011;53144;51.524;5.080;2023-04-16T01:42:43;6.30;;;3.90;;
66342;SDS011;53144;51.524;5.080;2023-04-16T01:47:34;6.93;;;3.70;;
66342;SDS011;53144;51.524;5.080;2023-04-16T01:50:00;9.50;;;4.13;;
66342;SDS011;53144;51.524;5.080;2023-04-16T01:52:25;7.28;;;3.88;;
66342;SDS011;53144;51.524;5.080;2023-04-16T01:54:50;8.20;;;3.97;;
66342;SDS011;53144;51.524;5.080;2023-04-16T01:57:16;7.90;;;4.47;;
66342;SDS011;53144;51.524;5.080;2023-04-16T01:59:41;8.43;;;4.40;;
66342;SDS011;53144;51.524;5.080;2023-04-16T02:02:07;10.18;;;3.78;;
66342;SDS011;53144;51.524;5.080;2023-04-16T02:04:42;9.27;;;3.88;;
66342;SDS011;53144;51.524;5.080;2023-04-16T02:07:11;7.65;;;3.90;;
66342;SDS011;53144;51.524;5.080;2023-04-16T02:09:37;8.75;;;4.07;;
66342;SDS011;53144;51.524;5.080;2023-04-16T02:12:04;8.93;;;4.47;;
66342;SDS011;53144;51.524;5.080;2023-04-16T02:14:29;8.75;;;4.78;;
66342;SDS011;53144;51.524;5.080;2023-04-16T02:16:55;8.75;;;4.50;;
66342;SDS011;53144;51.524;5.080;2023-04-16T02:19:21;9.40;;;4.30;;
66342;SDS011;53144;51.524;5.080;2023-04-16T02:21:47;12.77;;;4.95;;
66342;SDS011;53144;51.524;5.080;2023-04-16T02:24:13;9.90;;;5.25;;
66342;SDS011;53144;51.524;5.080;2023-04-16T02:26:38;11.88;;;5.30;;
66342;SDS011;53144;51.524;5.080;2023-04-16T02:29:04;13.25;;;5.38;;
66342;SDS011;53144;51.524;5.080;2023-04-16T02:31:30;10.98;;;5.78;;
66342;SDS011;53144;51.524;5.080;2023-04-16T02:33:55;9.73;;;5.57;;
66342;SDS011;53144;51.524;5.080;2023-04-16T02:38:46;9.90;;;6.60;;
66342;SDS011;53144;51.524;5.080;2023-04-16T02:41:12;13.10;;;6.82;;
66342;SDS011;53144;51.524;5.080;2023-04-16T02:43:37;14.52;;;7.22;;
66342;SDS011;53144;51.524;5.080;2023-04-16T02:46:02;13.15;;;6.63;;
66342;SDS011;53144;51.524;5.080;2023-04-16T02:48:28;13.20;;;6.90;;
66342;SDS011;53144;51.524;5.080;2023-04-16T02:50:53;11.65;;;6.80;;
66342;SDS011;53144;51.524;5.080;2023-04-16T02:53:19;12.88;;;6.47;;
66342;SDS011;53144;51.524;5.080;2023-04-16T02:55:51;9.68;;;5.55;;
66342;SDS011;53144;51.524;5.080;2023-04-16T02:58:18;11.57;;;5.55;;
66342;SDS011;53144;51.524;5.080;2023-04-16T03:00:44;9.93;;;6.00;;
66342;SDS011;53144;51.524;5.080;2023-04-16T03:03:10;13.40;;;6.38;;
66342;SDS011;53144;51.524;5.080;2023-04-16T03:05:35;10.90;;;6.75;;
66342;SDS011;53144;51.524;5.080;2023-04-16T03:08:02;13.43;;;7.70;;
66342;SDS011;53144;51.524;5.080;2023-04-16T03:10:28;14.88;;;7.43;;
66342;SDS011;53144;51.524;5.080;2023-04-16T03:12:53;17.02;;;7.55;;
66342;SDS011;53144;51.524;5.080;2023-04-16T03:15:18;15.70;;;7.32;;
66342;SDS011;53144;51.524;5.080;2023-04-16T03:17:44;14.02;;;7.40;;
66342;SDS011;53144;51.524;5.080;2023-04-16T03:20:10;15.50;;;7.53;;
66342;SDS011;53144;51.524;5.080;2023-04-16T03:22:35;13.20;;;7.80;;
66342;SDS011;53144;51.524;5.080;2023-04-16T03:25:01;12.80;;;7.05;;
66342;SDS011;53144;51.524;5.080;2023-04-16T03:27:27;12.30;;;7.45;;
66342;SDS011;53144;51.524;5.080;2023-04-16T03:29:52;14.32;;;8.13;;
66342;SDS011;53144;51.524;5.080;2023-04-16T03:32:17;16.00;;;8.35;;
66342;SDS011;53144;51.524;5.080;2023-04-16T03:34:43;15.00;;;9.27;;
66342;SDS011;53144;51.524;5.080;2023-04-16T03:37:09;17.08;;;9.23;;
66342;SDS011;53144;51.524;5.080;2023-04-16T03:39:36;18.98;;;10.55;;
66342;SDS011;53144;51.524;5.080;2023-04-16T03:42:01;20.13;;;10.10;;
66342;SDS011;53144;51.524;5.080;2023-04-16T03:44:27;15.85;;;8.02;;
66342;SDS011;53144;51.524;5.080;2023-04-16T03:46:53;15.80;;;8.68;;
66342;SDS011;53144;51.524;5.080;2023-04-16T03:49:18;19.15;;;10.20;;
66342;SDS011;53144;51.524;5.080;2023-04-16T03:51:44;20.08;;;10.80;;
66342;SDS011;53144;51.524;5.080;2023-04-16T03:54:10;25.40;;;10.82;;
66342;SDS011;53144;51.524;5.080;2023-04-16T03:56:35;19.55;;;12.80;;
66342;SDS011;53144;51.524;5.080;2023-04-16T03:59:01;23.95;;;12.20;;
66342;SDS011;53144;51.524;5.080;2023-04-16T04:01:26;24.17;;;12.95;;
66342;SDS011;53144;51.524;5.080;2023-04-16T04:03:51;24.50;;;12.30;;
66342;SDS011;53144;51.524;5.080;2023-04-16T04:06:17;20.52;;;12.35;;
66342;SDS011;53144;51.524;5.080;2023-04-16T04:08:42;22.67;;;11.80;;
66342;SDS011;53144;51.524;5.080;2023-04-16T04:11:08;22.88;;;11.95;;
66342;SDS011;53144;51.524;5.080;2023-04-16T04:13:33;20.23;;;11.30;;
66342;SDS011;53144;51.524;5.080;2023-04-16T04:15:58;20.50;;;11.35;;
66342;SDS011;53144;51.524;5.080;2023-04-16T04:18:24;20.00;;;10.82;;
66342;SDS011;53144;51.524;5.080;2023-04-16T04:20:49;17.73;;;9.77;;
66342;SDS011;53144;51.524;5.080;2023-04-16T04:23:15;19.02;;;10.20;;
66342;SDS011;53144;51.524;5.080;2023-04-16T04:25:41;20.10;;;9.75;;
66342;SDS011;53144;51.524;5.080;2023-04-16T04:28:06;20.88;;;9.57;;
66342;SDS011;53144;51.524;5.080;2023-04-16T04:30:32;18.30;;;9.80;;
66342;SDS011;53144;51.524;5.080;2023-04-16T04:32:59;22.73;;;9.48;;
66342;SDS011;53144;51.524;5.080;2023-04-16T04:35:25;19.80;;;9.02;;
66342;SDS011;53144;51.524;5.080;2023-04-16T04:37:50;19.52;;;9.48;;
66342;SDS011;53144;51.524;5.080;2023-04-16T04:40:15;16.90;;;8.38;;
66342;SDS011;53144;51.524;5.080;2023-04-16T04:45:06;20.30;;;8.80;;
66342;SDS011;53144;51.524;5.080;2023-04-16T04:47:32;20.25;;;9.20;;
66342;SDS011;53144;51.524;5.080;2023-04-16T04:49:58;19.08;;;8.55;;
66342;SDS011;53144;51.524;5.080;2023-04-16T04:52:23;19.27;;;8.60;;
66342;SDS011;53144;51.524;5.080;2023-04-16T04:54:48;19.92;;;8.73;;
66342;SDS011;53144;51.524;5.080;2023-04-16T04:57:14;21.17;;;7.75;;
66342;SDS011;53144;51.524;5.080;2023-04-16T04:59:39;19.63;;;8.82;;
66342;SDS011;53144;51.524;5.080;2023-04-16T05:02:05;18.40;;;8.80;;
66342;SDS011;53144;51.524;5.080;2023-04-16T05:04:30;22.90;;;8.45;;
66342;SDS011;53144;51.524;5.080;2023-04-16T05:06:56;22.42;;;8.68;;
66342;SDS011;53144;51.524;5.080;2023-04-16T05:11:46;16.77;;;8.00;;
66342;SDS011;53144;51.524;5.080;2023-04-16T05:16:37;14.18;;;7.82;;
66342;SDS011;53144;51.524;5.080;2023-04-16T05:19:03;13.57;;;7.20;;
66342;SDS011;53144;51.524;5.080;2023-04-16T05:21:28;12.25;;;6.55;;
66342;SDS011;53144;51.524;5.080;2023-04-16T05:23:54;14.75;;;8.05;;
66342;SDS011;53144;51.524;5.080;2023-04-16T05:26:20;13.25;;;8.15;;
66342;SDS011;53144;51.524;5.080;2023-04-16T05:28:46;16.88;;;7.75;;
66342;SDS011;53144;51.524;5.080;2023-04-16T05:31:12;14.85;;;7.30;;
66342;SDS011;53144;51.524;5.080;2023-04-16T05:33:37;17.02;;;8.15;;
66342;SDS011;53144;51.524;5.080;2023-04-16T05:36:03;16.88;;;8.30;;
66342;SDS011;53144;51.524;5.080;2023-04-16T05:38:29;21.08;;;8.52;;
66342;SDS011;53144;51.524;5.080;2023-04-16T05:40:54;16.63;;;7.55;;
66342;SDS011;53144;51.524;5.080;2023-04-16T05:43:20;20.15;;;9.77;;
66342;SDS011;53144;51.524;5.080;2023-04-16T05:45:45;17.02;;;8.20;;
66342;SDS011;53144;51.524;5.080;2023-04-16T05:48:10;13.27;;;7.43;;
66342;SDS011;53144;51.524;5.080;2023-04-16T05:50:36;17.98;;;8.38;;
66342;SDS011;53144;51.524;5.080;2023-04-16T05:53:03;13.60;;;7.13;;
66342;SDS011;53144;51.524;5.080;2023-04-16T05:55:30;19.02;;;7.85;;
66342;SDS011;53144;51.524;5.080;2023-04-16T05:57:56;16.90;;;6.95;;
66342;SDS011;53144;51.524;5.080;2023-04-16T06:02:46;11.15;;;6.00;;
66342;SDS011;53144;51.524;5.080;2023-04-16T06:05:12;11.02;;;6.05;;
66342;SDS011;53144;51.524;5.080;2023-04-16T06:07:37;15.65;;;6.55;;
66342;SDS011;53144;51.524;5.080;2023-04-16T06:10:03;12.77;;;6.55;;
66342;SDS011;53144;51.524;5.080;2023-04-16T06:12:28;14.60;;;7.43;;
66342;SDS011;53144;51.524;5.080;2023-04-16T06:14:54;18.30;;;7.20;;
66342;SDS011;53144;51.524;5.080;2023-04-16T06:17:20;15.40;;;7.10;;
66342;SDS011;53144;51.524;5.080;2023-04-16T06:22:10;14.60;;;6.78;;
66342;SDS011;53144;51.524;5.080;2023-04-16T06:24:36;11.73;;;6.93;;
66342;SDS011;53144;51.524;5.080;2023-04-16T06:27:01;16.75;;;8.05;;
66342;SDS011;53144;51.524;5.080;2023-04-16T06:29:27;14.00;;;7.85;;
66342;SDS011;53144;51.524;5.080;2023-04-16T06:31:53;18.55;;;8.43;;
66342;SDS011;53144;51.524;5.080;2023-04-16T06:34:18;19.05;;;8.35;;
66342;SDS011;53144;51.524;5.080;2023-04-16T06:36:44;14.93;;;8.65;;
66342;SDS011;53144;51.524;5.080;2023-04-16T06:39:09;13.55;;;7.93;;
66342;SDS011;53144;51.524;5.080;2023-04-16T06:41:35;17.40;;;8.05;;
66342;SDS011;53144;51.524;5.080;2023-04-16T06:44:00;15.30;;;7.93;;
66342;SDS011;53144;51.524;5.080;2023-04-16T06:46:25;16.73;;;7.85;;
66342;SDS011;53144;51.524;5.080;2023-04-16T06:48:51;14.85;;;8.10;;
66342;SDS011;53144;51.524;5.080;2023-04-16T06:51:16;13.68;;;6.95;;
66342;SDS011;53144;51.524;5.080;2023-04-16T06:53:44;16.75;;;7.50;;
66342;SDS011;53144;51.524;5.080;2023-04-16T06:56:09;18.70;;;8.27;;
66342;SDS011;53144;51.524;5.080;2023-04-16T06:58:35;13.18;;;7.45;;
66342;SDS011;53144;51.524;5.080;2023-04-16T07:01:00;13.38;;;7.13;;
66342;SDS011;53144;51.524;5.080;2023-04-16T07:03:26;13.95;;;7.65;;
66342;SDS011;53144;51.524;5.080;2023-04-16T07:05:52;19.40;;;6.93;;
66342;SDS011;53144;51.524;5.080;2023-04-16T07:08:19;17.77;;;8.10;;
66342;SDS011;53144;51.524;5.080;2023-04-16T07:10:44;15.35;;;7.00;;
66342;SDS011;53144;51.524;5.080;2023-04-16T07:13:10;17.85;;;8.10;;
66342;SDS011;53144;51.524;5.080;2023-04-16T07:18:00;18.60;;;7.68;;
66342;SDS011;53144;51.524;5.080;2023-04-16T07:22:51;17.98;;;7.65;;
66342;SDS011;53144;51.524;5.080;2023-04-16T07:25:17;12.15;;;7.50;;
66342;SDS011;53144;51.524;5.080;2023-04-16T07:27:42;17.80;;;7.45;;
66342;SDS011;53144;51.524;5.080;2023-04-16T07:30:07;16.25;;;7.75;;
66342;SDS011;53144;51.524;5.080;2023-04-16T07:32:33;19.08;;;7.82;;
66342;SDS011;53144;51.524;5.080;2023-04-16T07:34:59;15.65;;;8.20;;
66342;SDS011;53144;51.524;5.080;2023-04-16T07:37:24;19.60;;;7.68;;
66342;SDS011;53144;51.524;5.080;2023-04-16T07:39:50;18.42;;;8.48;;
66342;SDS011;53144;51.524;5.080;2023-04-16T07:42:16;15.35;;;7.93;;
66342;SDS011;53144;51.524;5.080;2023-04-16T07:44:41;19.92;;;8.02;;
66342;SDS011;53144;51.524;5.080;2023-04-16T07:47:07;18.20;;;7.87;;
66342;SDS011;53144;51.524;5.080;2023-04-16T07:49:32;15.90;;;8.23;;
66342;SDS011;53144;51.524;5.080;2023-04-16T07:54:23;13.77;;;7.88;;
66342;SDS011;53144;51.524;5.080;2023-04-16T07:56:48;15.95;;;8.52;;
66342;SDS011;53144;51.524;5.080;2023-04-16T07:59:14;18.20;;;8.43;;
66342;SDS011;53144;51.524;5.080;2023-04-16T08:01:45;20.55;;;8.40;;
66342;SDS011;53144;51.524;5.080;2023-04-16T08:04:11;23.77;;;8.93;;
66342;SDS011;53144;51.524;5.080;2023-04-16T08:06:38;20.27;;;9.38;;
66342;SDS011;53144;51.524;5.080;2023-04-16T08:09:03;20.48;;;9.15;;
66342;SDS011;53144;51.524;5.080;2023-04-16T08:11:29;18.42;;;9.77;;
66342;SDS011;53144;51.524;5.080;2023-04-16T08:13:54;18.73;;;9.38;;
66342;SDS011;53144;51.524;5.080;2023-04-16T08:16:19;26.92;;;9.60;;
66342;SDS011;53144;51.524;5.080;2023-04-16T08:18:45;19.30;;;9.55;;
66342;SDS011;53144;51.524;5.080;2023-04-16T08:23:36;18.92;;;8.82;;
66342;SDS011;53144;51.524;5.080;2023-04-16T08:26:02;17.23;;;8.35;;
66342;SDS011;53144;51.524;5.080;2023-04-16T08:28:31;19.77;;;9.85;;
66342;SDS011;53144;51.524;5.080;2023-04-16T08:31:42;28.90;;;9.00;;
66342;SDS011;53144;51.524;5.080;2023-04-16T08:34:10;20.83;;;9.57;;
66342;SDS011;53144;51.524;5.080;2023-04-16T08:36:45;22.63;;;9.73;;
66342;SDS011;53144;51.524;5.080;2023-04-16T08:39:11;19.98;;;10.02;;
66342;SDS011;53144;51.524;5.080;2023-04-16T08:41:37;31.75;;;9.63;;
66342;SDS011;53144;51.524;5.080;2023-04-16T08:44:08;16.25;;;8.32;;
66342;SDS011;53144;51.524;5.080;2023-04-16T08:46:39;18.98;;;8.60;;
66342;SDS011;53144;51.524;5.080;2023-04-16T08:49:06;17.02;;;9.07;;
66342;SDS011;53144;51.524;5.080;2023-04-16T08:51:35;19.73;;;9.88;;
66342;SDS011;53144;51.524;5.080;2023-04-16T08:54:02;18.25;;;9.35;;
66342;SDS011;53144;51.524;5.080;2023-04-16T08:56:36;20.05;;;9.15;;
66342;SDS011;53144;51.524;5.080;2023-04-16T08:59:04;18.02;;;8.98;;
66342;SDS011;53144;51.524;5.080;2023-04-16T09:01:36;14.63;;;8.40;;
66342;SDS011;53144;51.524;5.080;2023-04-16T09:04:05;14.40;;;8.60;;
66342;SDS011;53144;51.524;5.080;2023-04-16T09:06:31;13.70;;;7.95;;
66342;SDS011;53144;51.524;5.080;2023-04-16T09:08:59;16.67;;;9.68;;
66342;SDS011;53144;51.524;5.080;2023-04-16T09:11:28;18.50;;;9.00;;
66342;SDS011;53144;51.524;5.080;2023-04-16T09:13:54;23.30;;;10.18;;
66342;SDS011;53144;51.524;5.080;2023-04-16T09:16:21;17.17;;;8.55;;
66342;SDS011;53144;51.524;5.080;2023-04-16T09:18:48;20.60;;;9.27;;
66342;SDS011;53144;51.524;5.080;2023-04-16T09:21:14;19.33;;;9.10;;
66342;SDS011;53144;51.524;5.080;2023-04-16T09:26:06;20.30;;;10.00;;
66342;SDS011;53144;51.524;5.080;2023-04-16T09:28:38;22.88;;;10.18;;
66342;SDS011;53144;51.524;5.080;2023-04-16T09:31:14;18.77;;;9.55;;
66342;SDS011;53144;51.524;5.080;2023-04-16T09:34:01;16.95;;;9.15;;
66342;SDS011;53144;51.524;5.080;2023-04-16T09:36:30;20.92;;;9.98;;
66342;SDS011;53144;51.524;5.080;2023-04-16T09:38:59;16.38;;;9.07;;
66342;SDS011;53144;51.524;5.080;2023-04-16T09:41:27;16.38;;;9.32;;
66342;SDS011;53144;51.524;5.080;2023-04-16T09:43:55;21.10;;;10.35;;
66342;SDS011;53144;51.524;5.080;2023-04-16T09:46:32;21.50;;;9.65;;
66342;SDS011;53144;51.524;5.080;2023-04-16T09:49:08;21.80;;;9.77;;
66342;SDS011;53144;51.524;5.080;2023-04-16T09:51:41;18.98;;;10.05;;
66342;SDS011;53144;51.524;5.080;2023-04-16T09:54:07;15.98;;;9.60;;
66342;SDS011;53144;51.524;5.080;2023-04-16T09:56:40;19.80;;;9.40;;
66342;SDS011;53144;51.524;5.080;2023-04-16T09:59:06;18.73;;;10.13;;
66342;SDS011;53144;51.524;5.080;2023-04-16T10:01:33;19.90;;;9.95;;
66342;SDS011;53144;51.524;5.080;2023-04-16T10:04:00;22.58;;;10.52;;
66342;SDS011;53144;51.524;5.080;2023-04-16T10:06:26;23.02;;;10.73;;
66342;SDS011;53144;51.524;5.080;2023-04-16T10:08:53;18.75;;;9.52;;
66342;SDS011;53144;51.524;5.080;2023-04-16T10:11:22;20.73;;;9.27;;
66342;SDS011;53144;51.524;5.080;2023-04-16T10:16:13;17.60;;;8.93;;
66342;SDS011;53144;51.524;5.080;2023-04-16T10:18:43;15.35;;;8.95;;
66342;SDS011;53144;51.524;5.080;2023-04-16T10:21:09;21.98;;;10.23;;
66342;SDS011;53144;51.524;5.080;2023-04-16T10:23:39;17.15;;;10.45;;
66342;SDS011;53144;51.524;5.080;2023-04-16T10:26:05;16.98;;;9.65;;
66342;SDS011;53144;51.524;5.080;2023-04-16T10:28:31;21.00;;;10.93;;
66342;SDS011;53144;51.524;5.080;2023-04-16T10:30:59;20.90;;;10.30;;
66342;SDS011;53144;51.524;5.080;2023-04-16T10:33:27;21.17;;;9.88;;
66342;SDS011;53144;51.524;5.080;2023-04-16T10:36:08;20.98;;;10.40;;
66342;SDS011;53144;51.524;5.080;2023-04-16T10:38:36;17.05;;;9.48;;
66342;SDS011;53144;51.524;5.080;2023-04-16T10:41:04;18.55;;;10.05;;
66342;SDS011;53144;51.524;5.080;2023-04-16T10:43:31;17.92;;;9.80;;
66342;SDS011;53144;51.524;5.080;2023-04-16T10:46:16;19.77;;;10.50;;
66342;SDS011;53144;51.524;5.080;2023-04-16T10:48:41;17.80;;;9.60;;
66342;SDS011;53144;51.524;5.080;2023-04-16T10:51:07;19.75;;;9.80;;
66342;SDS011;53144;51.524;5.080;2023-04-16T10:53:46;18.90;;;9.32;;
66342;SDS011;53144;51.524;5.080;2023-04-16T10:56:12;17.77;;;10.65;;
66342;SDS011;53144;51.524;5.080;2023-04-16T10:58:37;16.92;;;10.10;;
66342;SDS011;53144;51.524;5.080;2023-04-16T11:03:34;15.40;;;9.80;;
66342;SDS011;53144;51.524;5.080;2023-04-16T11:06:10;19.90;;;9.18;;
66342;SDS011;53144;51.524;5.080;2023-04-16T11:08:42;14.80;;;8.80;;
66342;SDS011;53144;51.524;5.080;2023-04-16T11:11:09;18.23;;;8.98;;
66342;SDS011;53144;51.524;5.080;2023-04-16T11:13:35;14.75;;;9.38;;
66342;SDS011;53144;51.524;5.080;2023-04-16T11:18:26;18.13;;;9.55;;
66342;SDS011;53144;51.524;5.080;2023-04-16T11:23:17;19.20;;;9.85;;
66342;SDS011;53144;51.524;5.080;2023-04-16T11:28:09;17.73;;;9.50;;
66342;SDS011;53144;51.524;5.080;2023-04-16T11:30:35;18.00;;;10.23;;
66342;SDS011;53144;51.524;5.080;2023-04-16T11:33:02;20.58;;;11.98;;
66342;SDS011;53144;51.524;5.080;2023-04-16T11:35:28;23.95;;;11.13;;
66342;SDS011;53144;51.524;5.080;2023-04-16T11:37:56;17.65;;;9.75;;
66342;SDS011;53144;51.524;5.080;2023-04-16T11:40:23;19.15;;;10.63;;
66342;SDS011;53144;51.524;5.080;2023-04-16T11:45:14;17.08;;;10.43;;
66342;SDS011;53144;51.524;5.080;2023-04-16T11:47:47;22.00;;;10.82;;
66342;SDS011;53144;51.524;5.080;2023-04-16T11:52:48;17.48;;;10.05;;
66342;SDS011;53144;51.524;5.080;2023-04-16T11:55:15;16.13;;;10.10;;
66342;SDS011;53144;51.524;5.080;2023-04-16T11:57:41;17.08;;;10.52;;
66342;SDS011;53144;51.524;5.080;2023-04-16T12:02:39;18.52;;;9.50;;
66342;SDS011;53144;51.524;5.080;2023-04-16T12:08:06;18.40;;;10.70;;
66342;SDS011;53144;51.524;5.080;2023-04-16T12:10:35;22.25;;;11.15;;
66342;SDS011;53144;51.524;5.080;2023-04-16T12:13:14;23.38;;;11.50;;
66342;SDS011;53144;51.524;5.080;2023-04-16T12:15:44;19.10;;;10.95;;
66342;SDS011;53144;51.524;5.080;2023-04-16T12:18:13;19.17;;;12.20;;
66342;SDS011;53144;51.524;5.080;2023-04-16T12:20:40;16.52;;;11.18;;
66342;SDS011;53144;51.524;5.080;2023-04-16T12:23:06;20.40;;;11.00;;
66342;SDS011;53144;51.524;5.080;2023-04-16T12:25:32;21.67;;;11.23;;
66342;SDS011;53144;51.524;5.080;2023-04-16T12:27:58;19.48;;;10.60;;
66342;SDS011;53144;51.524;5.080;2023-04-16T12:32:50;21.13;;;10.68;;
66342;SDS011;53144;51.524;5.080;2023-04-16T12:35:30;23.63;;;12.13;;
66342;SDS011;53144;51.524;5.080;2023-04-16T12:37:56;21.52;;;11.27;;
66342;SDS011;53144;51.524;5.080;2023-04-16T12:40:22;19.80;;;10.80;;
66342;SDS011;53144;51.524;5.080;2023-04-16T12:45:13;21.30;;;11.43;;
66342;SDS011;53144;51.524;5.080;2023-04-16T12:50:03;21.83;;;11.55;;
66342;SDS011;53144;51.524;5.080;2023-04-16T12:54:55;22.60;;;11.23;;
66342;SDS011;53144;51.524;5.080;2023-04-16T12:59:47;26.83;;;13.15;;
66342;SDS011;53144;51.524;5.080;2023-04-16T13:02:13;23.98;;;13.38;;
66342;SDS011;53144;51.524;5.080;2023-04-16T13:07:03;20.35;;;13.05;;
66342;SDS011;53144;51.524;5.080;2023-04-16T13:11:54;26.98;;;14.43;;
66342;SDS011;53144;51.524;5.080;2023-04-16T13:16:45;20.27;;;12.32;;
66342;SDS011;53144;51.524;5.080;2023-04-16T13:21:36;20.52;;;11.88;;
66342;SDS011;53144;51.524;5.080;2023-04-16T13:26:27;20.95;;;12.07;;
66342;SDS011;53144;51.524;5.080;2023-04-16T13:28:52;21.15;;;12.60;;
66342;SDS011;53144;51.524;5.080;2023-04-16T13:33:46;22.38;;;11.52;;
66342;SDS011;53144;51.524;5.080;2023-04-16T13:36:11;20.92;;;11.27;;
66342;SDS011;53144;51.524;5.080;2023-04-16T13:41:03;20.35;;;12.30;;
66342;SDS011;53144;51.524;5.080;2023-04-16T13:43:30;23.08;;;11.32;;
66342;SDS011;53144;51.524;5.080;2023-04-16T13:45:55;20.77;;;11.40;;
66342;SDS011;53144;51.524;5.080;2023-04-16T13:50:46;20.58;;;12.32;;
66342;SDS011;53144;51.524;5.080;2023-04-16T13:53:11;21.73;;;12.98;;
66342;SDS011;53144;51.524;5.080;2023-04-16T13:55:37;23.15;;;13.52;;
66342;SDS011;53144;51.524;5.080;2023-04-16T14:00:27;22.60;;;11.57;;
66342;SDS011;53144;51.524;5.080;2023-04-16T14:05:18;20.15;;;12.10;;
66342;SDS011;53144;51.524;5.080;2023-04-16T14:10:09;18.08;;;11.55;;
66342;SDS011;53144;51.524;5.080;2023-04-16T14:15:01;18.55;;;11.75;;
66342;SDS011;53144;51.524;5.080;2023-04-16T14:17:28;19.40;;;11.45;;
66342;SDS011;53144;51.524;5.080;2023-04-16T14:22:19;19.65;;;12.13;;
66342;SDS011;53144;51.524;5.080;2023-04-16T14:27:10;18.45;;;11.85;;
66342;SDS011;53144;51.524;5.080;2023-04-16T14:29:36;21.95;;;13.40;;
66342;SDS011;53144;51.524;5.080;2023-04-16T14:34:27;21.83;;;13.20;;
66342;SDS011;53144;51.524;5.080;2023-04-16T14:39:17;17.02;;;12.75;;
66342;SDS011;53144;51.524;5.080;2023-04-16T14:44:08;22.77;;;12.32;;
66342;SDS011;53144;51.524;5.080;2023-04-16T14:49:00;22.17;;;12.27;;
66342;SDS011;53144;51.524;5.080;2023-04-16T14:53:51;20.50;;;12.15;;
66342;SDS011;53144;51.524;5.080;2023-04-16T14:58:43;18.33;;;11.75;;
66342;SDS011;53144;51.524;5.080;2023-04-16T15:03:34;20.45;;;12.55;;
66342;SDS011;53144;51.524;5.080;2023-04-16T15:08:25;18.60;;;12.02;;
66342;SDS011;53144;51.524;5.080;2023-04-16T15:13:16;18.77;;;12.38;;
66342;SDS011;53144;51.524;5.080;2023-04-16T15:15:42;15.98;;;11.40;;
66342;SDS011;53144;51.524;5.080;2023-04-16T15:20:32;20.10;;;11.90;;
66342;SDS011;53144;51.524;5.080;2023-04-16T15:25:23;16.05;;;11.68;;
66342;SDS011;53144;51.524;5.080;2023-04-16T15:27:49;17.02;;;11.30;;
66342;SDS011;53144;51.524;5.080;2023-04-16T15:32:42;20.30;;;12.63;;
66342;SDS011;53144;51.524;5.080;2023-04-16T15:35:08;17.65;;;11.93;;
66342;SDS011;53144;51.524;5.080;2023-04-16T15:39:58;22.38;;;12.45;;
66342;SDS011;53144;51.524;5.080;2023-04-16T15:44:49;23.42;;;12.73;;
66342;SDS011;53144;51.524;5.080;2023-04-16T15:49:40;20.55;;;12.50;;
66342;SDS011;53144;51.524;5.080;2023-04-16T15:54:31;19.83;;;12.02;;
66342;SDS011;53144;51.524;5.080;2023-04-16T15:59:23;22.83;;;13.45;;
66342;SDS011;53144;51.524;5.080;2023-04-16T16:01:49;29.40;;;16.17;;
66342;SDS011;53144;51.524;5.080;2023-04-16T16:06:40;25.05;;;14.98;;
66342;SDS011;53144;51.524;5.080;2023-04-16T16:11:31;24.15;;;15.85;;
66342;SDS011;53144;51.524;5.080;2023-04-16T16:16:25;27.42;;;16.30;;
66342;SDS011;53144;51.524;5.080;2023-04-16T16:18:51;33.08;;;17.92;;
66342;SDS011;53144;51.524;5.080;2023-04-16T16:21:16;27.20;;;16.58;;
66342;SDS011;53144;51.524;5.080;2023-04-16T16:26:07;25.70;;;17.88;;
66342;SDS011;53144;51.524;5.080;2023-04-16T16:31:01;25.77;;;16.48;;
66342;SDS011;53144;51.524;5.080;2023-04-16T16:33:27;32.55;;;17.73;;
66342;SDS011;53144;51.524;5.080;2023-04-16T16:38:18;26.92;;;15.77;;
66342;SDS011;53144;51.524;5.080;2023-04-16T16:43:09;28.00;;;15.63;;
66342;SDS011;53144;51.524;5.080;2023-04-16T16:48:00;25.05;;;14.57;;
66342;SDS011;53144;51.524;5.080;2023-04-16T16:50:27;22.63;;;14.68;;
66342;SDS011;53144;51.524;5.080;2023-04-16T16:55:18;26.98;;;13.70;;
66342;SDS011;53144;51.524;5.080;2023-04-16T16:57:44;23.08;;;13.15;;
66342;SDS011;53144;51.524;5.080;2023-04-16T17:05:05;17.65;;;12.98;;
66342;SDS011;53144;51.524;5.080;2023-04-16T17:07:31;18.13;;;12.63;;
66342;SDS011;53144;51.524;5.080;2023-04-16T17:12:22;19.55;;;12.25;;
66342;SDS011;53144;51.524;5.080;2023-04-16T17:17:17;20.00;;;13.10;;